Grand Teton Natl Park, Wyoming
Current Conditions -  °F | °C
As of 7:55 PM on Wednesday 26 Nov 2014 (Local Time) from KJAC Reporting Station
Clear Clear  
Wind Chill: 31°   Ceiling: Unl
Heat Index: 37°   Visibility: 10mi
Dew Point: 30°   Wind: 8mph
Humidity: 75%   Direction: 220°SW
Pressure: 30.29"   Gusts: NA
Location:  43.72°N, 110.8°W
Report Text: KJAC 270255Z 22007KT 10SM CLR 03/M01 A3029
Loading
Personal Weather Stations






























Interactive Weather Map New forecast layout! Learn more

10-Day Weather Forecast

Advertisements
Track Severe Weather on mobile